Lewisetta, Virginia
Current Conditions -  °F | °C
As of 4:53 PM on Saturday 25 Oct 2014 (Local Time) from KNUI Reporting Station
Clear Clear  
Wind Chill: 67°   Ceiling: Unl
Heat Index: 67°   Visibility: 10mi
Dew Point: 47°   Wind: 6mph
Humidity: 49%   Direction: 150°SSE
Pressure: 29.8"   Gusts: NA
Location:  37.9843°N, 76.5087°W
Report Text: KNUI 252053Z AUTO 15005KT 10SM CLR 19/08 A2980 RMK AO2 SLP091 T01940083 56020 $
Loading
Personal Weather Stations






























Interactive Weather Map
Tropical Storm Tracking
New forecast layout! Learn more

10-Day Weather Forecast

Advertisements
Track Severe Weather on mobile